Gerli, Argentina
Current Conditions -  °F | °C
As of 3:00 AM on Monday 22 Dec 2014 (Local Time) from SABE Reporting Station
Clear Clear  
Wind Chill: 66°   Ceiling: Unl
Heat Index: 66°   Visibility: 6mi
Dew Point: 57°   Wind: 14mph
Humidity: 73%   Direction: 140°SE
Pressure: 29.91"   Gusts: NA
Location:  34.7°S, 58.38°W
Report Text: SABE 220600Z 14012KT CAVOK 19/14 Q1013
Loading
Personal Weather Stations






























Interactive Weather Map New forecast layout! Learn more

10-Day Weather Forecast

Advertisements
Track Severe Weather on mobile